Home

Weather

KSLC Current Conditions

KSLC 150954Z 00000KT 10SM CLR 00/M04 A3039 RMK AO2 SLP297 T00001039

KSLC Aviation Forecast

TAF AMD KSLC 150905Z 1509/1612 32005KT P6SM SKC FM151000 15005KT P6SM SKC FM151700 33006KT P6SM SKC FM160400 15006KT P6SM SKC


Hard Freeze Warning

Issued:
3:01 AM MDT on October 15, 2018
Expires:
9:00 AM MDT on October 15, 2018
32° F
Clear
Clear

Clear
Monday
Clear
High 51°/Low 34°
0%
Clear
Tuesday
Clear
High 59°/Low 39°
0%
Clear
Wednesday
Clear
High 63°/Low 41°
0%
Clear
Thursday
Clear
High 61°/Low 40°
0%
Clear
Friday
Clear
High 63°/Low 41°
0%
Clear
Saturday
Clear
High 66°/Low 43°
0%